OIII/THR METAR and TAF weather

Enter ICAO airport designator
Station Type Date Time Source
OIII METAR 2022/01/27 23:30 UTC NOAA

OIII 272330Z 28014KT 9999 FEW100 04/M08 Q1013 A2992


Station Type Date Time Source
OIII Decoded METAR 2022/01/27 23:30 UTC NOAA

Tehran-Mehrabad, Iran (OIII) 35-41N 051-21E 1191M
Jan 27, 2022 - 06:30 PM EST / 2022.01.27 2330 UTC
Wind: from the W (280 degrees) at 16 MPH (14 KT):0
Visibility: greater than 7 mile(s):0
Sky conditions: mostly clear
Temperature: 39 F (4 C)
Dew Point: 17 F (-8 C)
Relative Humidity: 41%
Pressure (altimeter): 29.92 in. Hg (1013 hPa)
ob: OIII 272330Z 28014KT 9999 FEW100 04/M08 Q1013 A2992
cycle: 23

Station Type Date Time Source
OIII TAF 2022/01/27 18:06 UTC NOAA

TAF OIII 271750Z 2718/2824 28010KT 6000 FEW035CB SCT040 BKN100
TEMPO 2718/2722 32020KT PROB40
TEMPO 2719/2722 5000 SHRA
BECMG 2722/2724 FEW040 SCT100
TEMPO 2801/2806 4000 BR/HZ
TEMPO 2806/2812 32018KT

Example: see airport list